Townsend, TN (37882)

12:35 PM EST on February 14, 2016 (GMT -0500)
Ober Gatlinburg Ski Area | | Change Station
CLOSE
Current Station
Personal Weather Station
Location: Gatlinburg, TN
Elevation: 2690 ft
Nearby Weather Stations
Active Advisory: Winter Weather Advisory

Elev 2690 ft 35.70 °N, 83.56 °W | Updated 11 seconds ago

Overcast
Overcast
19.9 °F
Feels Like 20 °F
N
0.0
Wind Variable Wind from NE
Gusts 0.0 mph

Today
High -- | Low -- °F
--% Chance of Precip.
Yesterday
High -- | Low -- °F
Precip. -- in
Pressure 30.27 in
Visibility 10.0 miles
Clouds Overcast 6000 ft
Windchill 20 °F
Dew Point 13 °F
Humidity 75%
Rainfall 0.00 in
Snow Depth Not available.
7:23 AM 6:15 PM
Waxing Crescent, 43% visible
METAR KRHP 141715Z AUTO 27004KT 10SM OVC060 00/M13 A3027 RMK AO2 T00041133
Pressure 30.27 in
Visibility 10.0 miles
Clouds Overcast 6000 ft
Windchill 20 °F
Dew Point 13 °F
Humidity 75%
Rainfall 0.00 in
Snow Depth Not available.
7:23 AM 6:15 PM
Waxing Crescent, 43% visible
METAR KRHP 141715Z AUTO 27004KT 10SM OVC060 00/M13 A3027 RMK AO2 T00041133

10-Day Weather Forecast

Almanac

Astronomy

Feb. 14, 2016 Rise Set
Actual Time
Civil Twilight
Nautical Twilight
Astronomical Twilight
Moon
Length of Visible Light
Length of Day
Tomorrow will be .
, % of the Moon is Illuminated

Today's Extremes

State Highs State Lows

Community

WunderPhotos

Upload Photos

1,892,859 photos uploaded!

WunderBlog® & News

Nearby

Air Quality

  Air Quality AQ Index Pollutant
Not available.

Snow Depth

Station Depth Elevation

Earthquake Activity

City Distance Mag. Time & Date
Minimum magnitude displayed is 2.5.

Coastal Water Temperatures

Place Temperature

Stations

Nearby Weather Stations

Station Location Temp. Windchill Dew Point Humidity Wind Precip. Elev Updated Type
                   

Watches & Warnings

Winter Weather Advisory
Issued: 12:00 PM EST Feb. 14, 2016 – National Weather Service

... Winter Weather Advisory remains in effect until 10 am EST
Monday...

* event... snow and sleet accumulations of 1 to 3 inches are
expected. In addition... a few areas may see some freezing rain
with ice accumulation of less than a tenth of an inch
possible.

* Timing... snow is expected to begin accumulating by early
afternoon today... with a mix of snow... sleet... rain and
possibly freezing rain tonight into early Monday morning
before changing to all rain.

* Impacts... snow and ice will make driving conditions hazardous.

Precautionary/preparedness actions...

A Winter Weather Advisory means that periods of snow... sleet...
and/or freezing rain are expected or occurring... but
accumulations are expected to be light. Driving and walking may
be difficult on untreated roadways and sidewalks. Be prepared for
snow and ice covered roads and limited visibilities. If you must
travel... slow down and allow extra time to reach your
destination.